MQC94H HKMO-FMCH
Flight info
| Callsign | MQC94H |
|---|---|
| Flight time | 1h 34m |
| Altitude | 33000 |
| Route | IMSIS2A UVUKO UL431 EGPET UT913 APGEN DCT SOLAL SOLAL1K |
| Aircraft | B738/M-SDE2E3FGHIRWXY/LB1 |
Departure
| Time | 2026-04-21 12:44 |
|---|---|
| Airport | Moi International Airport (HKMO) |
Arrival
| Time | 2026-04-21 14:18 |
|---|---|
| Airport | Prince Said Ibrahim International Airport (FMCH) |
| Time | Latitude | Longitude | Altitude | Speed | Heading |
|---|---|---|---|---|---|
| 2026-04-21 12:30 | -4.02949 | 39.60063 | 202 ft | 0 kts | 30° |
| 2026-04-21 12:38 | -4.02948 | 39.60064 | 202 ft | 0 kts | 30° |
| 2026-04-21 12:39 | -4.02935 | 39.60072 | 209 ft | 7 kts | 30° |
| 2026-04-21 12:39 | -4.02873 | 39.60075 | 202 ft | 11 kts | 325° |
| 2026-04-21 12:39 | -4.02828 | 39.60018 | 206 ft | 10 kts | 324° |
| 2026-04-21 12:39 | -4.02755 | 39.60026 | 209 ft | 13 kts | 27° |
| 2026-04-21 12:40 | -4.02664 | 39.60073 | 205 ft | 16 kts | 28° |
| 2026-04-21 12:40 | -4.02559 | 39.60132 | 213 ft | 18 kts | 31° |
| 2026-04-21 12:40 | -4.02442 | 39.60200 | 215 ft | 21 kts | 30° |
| 2026-04-21 12:40 | -4.02316 | 39.60272 | 207 ft | 21 kts | 30° |
| 2026-04-21 12:41 | -4.02194 | 39.60342 | 205 ft | 20 kts | 30° |
| 2026-04-21 12:41 | -4.02075 | 39.60410 | 205 ft | 19 kts | 30° |
| 2026-04-21 12:41 | -4.01960 | 39.60475 | 210 ft | 19 kts | 29° |
| 2026-04-21 12:41 | -4.01849 | 39.60537 | 207 ft | 18 kts | 29° |
| 2026-04-21 12:42 | -4.01741 | 39.60598 | 209 ft | 17 kts | 29° |
| 2026-04-21 12:42 | -4.01637 | 39.60656 | 210 ft | 17 kts | 29° |
| 2026-04-21 12:42 | -4.01536 | 39.60710 | 208 ft | 16 kts | 24° |
| 2026-04-21 12:42 | -4.01428 | 39.60726 | 209 ft | 16 kts | 349° |
| 2026-04-21 12:43 | -4.01343 | 39.60666 | 209 ft | 16 kts | 297° |
| 2026-04-21 12:43 | -4.01395 | 39.60587 | 209 ft | 16 kts | 207° |
| 2026-04-21 12:43 | -4.01687 | 39.60428 | 210 ft | 84 kts | 209° |
| 2026-04-21 12:43 | -4.02393 | 39.60033 | 216 ft | 146 kts | 209° |
| 2026-04-21 12:44 | -4.03394 | 39.59480 | 506 ft | 175 kts | 206° |
| 2026-04-21 12:44 | -4.04138 | 39.59072 | 797 ft | 195 kts | 206° |
| 2026-04-21 12:44 | -4.05388 | 39.58383 | 1218 ft | 212 kts | 206° |
| 2026-04-21 12:44 | -4.06659 | 39.57682 | 2013 ft | 204 kts | 206° |
| 2026-04-21 12:45 | -4.07926 | 39.56973 | 2534 ft | 219 kts | 207° |
| 2026-04-21 12:45 | -4.09338 | 39.56183 | 2786 ft | 246 kts | 207° |
| 2026-04-21 12:45 | -4.10870 | 39.55324 | 3370 ft | 258 kts | 208° |
| 2026-04-21 12:45 | -4.12429 | 39.54448 | 4247 ft | 257 kts | 207° |
| 2026-04-21 12:46 | -4.14009 | 39.53560 | 4982 ft | 264 kts | 207° |
| 2026-04-21 12:46 | -4.15639 | 39.52645 | 5635 ft | 273 kts | 207° |
| 2026-04-21 12:46 | -4.17299 | 39.51714 | 6439 ft | 274 kts | 208° |
| 2026-04-21 12:46 | -4.18983 | 39.50769 | 7102 ft | 280 kts | 208° |
| 2026-04-21 12:47 | -4.20700 | 39.49806 | 7802 ft | 285 kts | 208° |
| 2026-04-21 12:47 | -4.22443 | 39.48829 | 8512 ft | 289 kts | 207° |
| 2026-04-21 12:47 | -4.24220 | 39.47850 | 9216 ft | 293 kts | 203° |
| 2026-04-21 12:47 | -4.26189 | 39.47398 | 9892 ft | 293 kts | 178° |
| 2026-04-21 12:48 | -4.28254 | 39.47495 | 10324 ft | 306 kts | 173° |
| 2026-04-21 12:48 | -4.30452 | 39.47699 | 10485 ft | 328 kts | 173° |
| 2026-04-21 12:48 | -4.32797 | 39.47912 | 10661 ft | 349 kts | 174° |
| 2026-04-21 12:48 | -4.35266 | 39.48082 | 10996 ft | 361 kts | 175° |
| 2026-04-21 12:49 | -4.37791 | 39.48214 | 11574 ft | 364 kts | 175° |
| 2026-04-21 12:49 | -4.40327 | 39.48337 | 12219 ft | 366 kts | 175° |
| 2026-04-21 12:49 | -4.42882 | 39.48468 | 12773 ft | 370 kts | 175° |
| 2026-04-21 12:49 | -4.45468 | 39.48610 | 13307 ft | 374 kts | 175° |
| 2026-04-21 12:50 | -4.48083 | 39.48761 | 13852 ft | 378 kts | 175° |
| 2026-04-21 12:50 | -4.50717 | 39.48918 | 14362 ft | 380 kts | 174° |
| 2026-04-21 12:50 | -4.53365 | 39.49078 | 14870 ft | 383 kts | 174° |
| 2026-04-21 12:50 | -4.56033 | 39.49240 | 15361 ft | 386 kts | 174° |
| 2026-04-21 12:51 | -4.58724 | 39.49404 | 15852 ft | 389 kts | 174° |
| 2026-04-21 12:51 | -4.61433 | 39.49568 | 16332 ft | 392 kts | 174° |
| 2026-04-21 12:51 | -4.64161 | 39.49734 | 16809 ft | 394 kts | 174° |
| 2026-04-21 12:51 | -4.66913 | 39.49901 | 17279 ft | 397 kts | 174° |
| 2026-04-21 12:52 | -4.69681 | 39.50068 | 17733 ft | 400 kts | 175° |
| 2026-04-21 12:52 | -4.72482 | 39.50083 | 18175 ft | 405 kts | 181° |
| 2026-04-21 12:52 | -4.75305 | 39.49872 | 18559 ft | 408 kts | 184° |
| 2026-04-21 12:52 | -4.78138 | 39.49570 | 18954 ft | 410 kts | 184° |
| 2026-04-21 12:53 | -4.80981 | 39.49248 | 19349 ft | 412 kts | 184° |
| 2026-04-21 12:53 | -4.83840 | 39.48935 | 19724 ft | 415 kts | 184° |
| 2026-04-21 12:53 | -4.86719 | 39.48640 | 20093 ft | 417 kts | 184° |
| 2026-04-21 12:53 | -4.89611 | 39.48359 | 20458 ft | 419 kts | 183° |
| 2026-04-21 12:54 | -4.92521 | 39.48088 | 20820 ft | 421 kts | 183° |
| 2026-04-21 12:54 | -4.95447 | 39.47822 | 21171 ft | 423 kts | 183° |
| 2026-04-21 12:54 | -4.98386 | 39.47558 | 21505 ft | 426 kts | 182° |
| 2026-04-21 12:54 | -5.01342 | 39.47293 | 21848 ft | 428 kts | 182° |
| 2026-04-21 12:55 | -5.04319 | 39.47026 | 22186 ft | 430 kts | 182° |
| 2026-04-21 12:55 | -5.07304 | 39.46758 | 22516 ft | 432 kts | 182° |
| 2026-04-21 12:55 | -5.10303 | 39.46488 | 22851 ft | 434 kts | 182° |
| 2026-04-21 12:55 | -5.13324 | 39.46216 | 23154 ft | 437 kts | 182° |
| 2026-04-21 12:56 | -5.16356 | 39.45943 | 23451 ft | 439 kts | 182° |
| 2026-04-21 12:56 | -5.19401 | 39.45668 | 23710 ft | 440 kts | 182° |
| 2026-04-21 12:56 | -5.22456 | 39.45393 | 23968 ft | 441 kts | 182° |
| 2026-04-21 12:56 | -5.25517 | 39.45116 | 24232 ft | 443 kts | 182° |
| 2026-04-21 12:57 | -5.28591 | 39.44839 | 24473 ft | 444 kts | 182° |
| 2026-04-21 12:57 | -5.31675 | 39.44561 | 24711 ft | 446 kts | 182° |
| 2026-04-21 12:57 | -5.34772 | 39.44282 | 24950 ft | 447 kts | 183° |
| 2026-04-21 12:57 | -5.37875 | 39.44002 | 25185 ft | 449 kts | 183° |
| 2026-04-21 12:58 | -5.40989 | 39.43721 | 25419 ft | 450 kts | 183° |
| 2026-04-21 12:58 | -5.44114 | 39.43439 | 25651 ft | 452 kts | 183° |
| 2026-04-21 12:58 | -5.47250 | 39.43155 | 25872 ft | 453 kts | 183° |
| 2026-04-21 12:58 | -5.50396 | 39.42871 | 26096 ft | 454 kts | 183° |
| 2026-04-21 12:59 | -5.53548 | 39.42587 | 26313 ft | 456 kts | 183° |
| 2026-04-21 12:59 | -5.56713 | 39.42301 | 26526 ft | 457 kts | 183° |
| 2026-04-21 12:59 | -5.59889 | 39.42014 | 26733 ft | 459 kts | 183° |
| 2026-04-21 12:59 | -5.63068 | 39.41727 | 26932 ft | 460 kts | 183° |
| 2026-04-21 13:00 | -5.66266 | 39.41438 | 27135 ft | 462 kts | 183° |
| 2026-04-21 13:00 | -5.69473 | 39.41148 | 27344 ft | 463 kts | 183° |
| 2026-04-21 13:00 | -5.72688 | 39.40858 | 27539 ft | 465 kts | 183° |
| 2026-04-21 13:00 | -5.75911 | 39.40566 | 27729 ft | 466 kts | 183° |
| 2026-04-21 13:01 | -5.79146 | 39.40274 | 27906 ft | 467 kts | 183° |
| 2026-04-21 13:01 | -5.82391 | 39.39982 | 28093 ft | 468 kts | 182° |
| 2026-04-21 13:01 | -5.85644 | 39.39846 | 28270 ft | 468 kts | 177° |
| 2026-04-21 13:01 | -5.88869 | 39.40209 | 28401 ft | 466 kts | 162° |
| 2026-04-21 13:02 | -5.91806 | 39.41532 | 28561 ft | 463 kts | 145° |
| 2026-04-21 13:02 | -5.94393 | 39.43452 | 28782 ft | 462 kts | 141° |
| 2026-04-21 13:02 | -5.99769 | 39.47049 | 29038 ft | 468 kts | 149° |
| 2026-04-21 13:03 | -6.02623 | 39.48638 | 29185 ft | 469 kts | 150° |
| 2026-04-21 13:03 | -6.05489 | 39.50212 | 29344 ft | 470 kts | 149° |
| 2026-04-21 13:03 | -6.08342 | 39.51819 | 29524 ft | 470 kts | 149° |
| 2026-04-21 13:03 | -6.11171 | 39.53461 | 29765 ft | 469 kts | 148° |
| 2026-04-21 13:04 | -6.13978 | 39.55127 | 30008 ft | 468 kts | 148° |
| 2026-04-21 13:04 | -6.16774 | 39.56802 | 30194 ft | 468 kts | 148° |
| 2026-04-21 13:04 | -6.19569 | 39.58480 | 30367 ft | 468 kts | 148° |
| 2026-04-21 13:04 | -6.22371 | 39.60156 | 30553 ft | 468 kts | 148° |
| 2026-04-21 13:05 | -6.25167 | 39.61823 | 30765 ft | 468 kts | 148° |
| 2026-04-21 13:05 | -6.27952 | 39.63514 | 30960 ft | 467 kts | 147° |
| 2026-04-21 13:05 | -6.30700 | 39.65254 | 31150 ft | 467 kts | 146° |
| 2026-04-21 13:05 | -6.33433 | 39.67016 | 31365 ft | 466 kts | 146° |
| 2026-04-21 13:06 | -6.36162 | 39.68778 | 31581 ft | 466 kts | 146° |
| 2026-04-21 13:06 | -6.38888 | 39.70528 | 31818 ft | 465 kts | 147° |
| 2026-04-21 13:06 | -6.41619 | 39.72268 | 32022 ft | 465 kts | 147° |
| 2026-04-21 13:06 | -6.44353 | 39.74007 | 32237 ft | 464 kts | 147° |
| 2026-04-21 13:07 | -6.47088 | 39.75730 | 32467 ft | 464 kts | 147° |
| 2026-04-21 13:07 | -6.49830 | 39.77438 | 32680 ft | 463 kts | 147° |
| 2026-04-21 13:07 | -6.52570 | 39.79137 | 32925 ft | 462 kts | 147° |
| 2026-04-21 13:07 | -6.55308 | 39.80835 | 33160 ft | 462 kts | 147° |
| 2026-04-21 13:08 | -6.58043 | 39.82533 | 33357 ft | 462 kts | 147° |
| 2026-04-21 13:08 | -6.60777 | 39.84234 | 33561 ft | 462 kts | 147° |
| 2026-04-21 13:08 | -6.63510 | 39.85938 | 33800 ft | 462 kts | 147° |
| 2026-04-21 13:08 | -6.66236 | 39.87637 | 34026 ft | 461 kts | 148° |
| 2026-04-21 13:09 | -6.68961 | 39.89337 | 34219 ft | 460 kts | 148° |
| 2026-04-21 13:09 | -6.71679 | 39.91032 | 34437 ft | 459 kts | 148° |
| 2026-04-21 13:09 | -6.74390 | 39.92723 | 34661 ft | 458 kts | 148° |
| 2026-04-21 13:09 | -6.77095 | 39.94410 | 34847 ft | 457 kts | 148° |
| 2026-04-21 13:10 | -6.82502 | 39.97779 | 34895 ft | 458 kts | 148° |
| 2026-04-21 13:10 | -6.87945 | 40.01164 | 34908 ft | 461 kts | 148° |
| 2026-04-21 13:11 | -6.93421 | 40.04571 | 34913 ft | 464 kts | 148° |
| 2026-04-21 13:11 | -6.98928 | 40.08000 | 34902 ft | 466 kts | 148° |
| 2026-04-21 13:12 | -7.04435 | 40.11431 | 34893 ft | 464 kts | 148° |
| 2026-04-21 13:12 | -7.09894 | 40.14832 | 34891 ft | 459 kts | 148° |
| 2026-04-21 13:13 | -7.15295 | 40.18198 | 34898 ft | 455 kts | 148° |
| 2026-04-21 13:13 | -7.20657 | 40.21541 | 34902 ft | 453 kts | 148° |
| 2026-04-21 13:14 | -7.26022 | 40.24888 | 34913 ft | 455 kts | 148° |
| 2026-04-21 13:14 | -7.31427 | 40.28260 | 34914 ft | 459 kts | 148° |
| 2026-04-21 13:15 | -7.36887 | 40.31668 | 34912 ft | 464 kts | 147° |
| 2026-04-21 13:15 | -7.42383 | 40.35098 | 34907 ft | 465 kts | 147° |
| 2026-04-21 13:16 | -7.47875 | 40.38527 | 34903 ft | 464 kts | 147° |
| 2026-04-21 13:16 | -7.53362 | 40.41954 | 34911 ft | 464 kts | 147° |
| 2026-04-21 13:17 | -7.58837 | 40.45374 | 34905 ft | 462 kts | 147° |
| 2026-04-21 13:17 | -7.64282 | 40.48777 | 34895 ft | 458 kts | 147° |
| 2026-04-21 13:18 | -7.69662 | 40.52140 | 34903 ft | 453 kts | 147° |
| 2026-04-21 13:18 | -7.74994 | 40.55476 | 34904 ft | 450 kts | 147° |
| 2026-04-21 13:19 | -7.80321 | 40.58810 | 34915 ft | 452 kts | 147° |
| 2026-04-21 13:19 | -7.85669 | 40.62190 | 34920 ft | 456 kts | 146° |
| 2026-04-21 13:20 | -7.91014 | 40.65686 | 34916 ft | 460 kts | 146° |
| 2026-04-21 13:20 | -7.96398 | 40.69218 | 34915 ft | 463 kts | 146° |
| 2026-04-21 13:21 | -8.01814 | 40.72754 | 34906 ft | 463 kts | 146° |
| 2026-04-21 13:21 | -8.07170 | 40.76244 | 34905 ft | 460 kts | 146° |
| 2026-04-21 13:22 | -8.12522 | 40.79735 | 34901 ft | 455 kts | 146° |
| 2026-04-21 13:22 | -8.17880 | 40.83174 | 34903 ft | 452 kts | 149° |
| 2026-04-21 13:23 | -8.23708 | 40.85372 | 34928 ft | 454 kts | 166° |
| 2026-04-21 13:23 | -8.29952 | 40.86593 | 34924 ft | 460 kts | 166° |
| 2026-04-21 13:24 | -8.35170 | 40.87911 | 34913 ft | 463 kts | 162° |
| 2026-04-21 13:24 | -8.41376 | 40.89708 | 34917 ft | 465 kts | 162° |
| 2026-04-21 13:25 | -8.48641 | 40.91740 | 34913 ft | 467 kts | 163° |
| 2026-04-21 13:25 | -8.54919 | 40.93417 | 34911 ft | 466 kts | 163° |
| 2026-04-21 13:26 | -8.60170 | 40.94800 | 34913 ft | 465 kts | 163° |
| 2026-04-21 13:26 | -8.66416 | 40.96443 | 34910 ft | 463 kts | 163° |
| 2026-04-21 13:27 | -8.72631 | 40.98084 | 34911 ft | 461 kts | 163° |
| 2026-04-21 13:27 | -8.78818 | 40.99721 | 34914 ft | 458 kts | 163° |
| 2026-04-21 13:28 | -8.84980 | 41.01352 | 34916 ft | 457 kts | 163° |
| 2026-04-21 13:28 | -8.91112 | 41.02974 | 34917 ft | 455 kts | 163° |
| 2026-04-21 13:29 | -8.97233 | 41.04595 | 34916 ft | 454 kts | 164° |
| 2026-04-21 13:29 | -9.03345 | 41.06215 | 34918 ft | 454 kts | 164° |
| 2026-04-21 13:30 | -9.09450 | 41.07832 | 34919 ft | 454 kts | 164° |
| 2026-04-21 13:30 | -9.15561 | 41.09451 | 34921 ft | 454 kts | 164° |
| 2026-04-21 13:31 | -9.21673 | 41.11072 | 34917 ft | 454 kts | 164° |
| 2026-04-21 13:31 | -9.27796 | 41.12696 | 34918 ft | 455 kts | 164° |
| 2026-04-21 13:32 | -9.33922 | 41.14322 | 34921 ft | 455 kts | 164° |
| 2026-04-21 13:32 | -9.40052 | 41.15949 | 34916 ft | 455 kts | 164° |
| 2026-04-21 13:33 | -9.46182 | 41.17576 | 34914 ft | 456 kts | 164° |
| 2026-04-21 13:33 | -9.52314 | 41.19205 | 34915 ft | 455 kts | 164° |
| 2026-04-21 13:34 | -9.58444 | 41.20834 | 34915 ft | 455 kts | 164° |
| 2026-04-21 13:34 | -9.64565 | 41.22461 | 34920 ft | 454 kts | 164° |
| 2026-04-21 13:35 | -9.70674 | 41.24086 | 34918 ft | 454 kts | 164° |
| 2026-04-21 13:35 | -9.76776 | 41.25709 | 34916 ft | 453 kts | 164° |
| 2026-04-21 13:36 | -9.82862 | 41.27329 | 34916 ft | 452 kts | 164° |
| 2026-04-21 13:36 | -9.88938 | 41.28946 | 34918 ft | 451 kts | 164° |
| 2026-04-21 13:37 | -9.95004 | 41.30562 | 34917 ft | 450 kts | 164° |
| 2026-04-21 13:37 | -10.01061 | 41.32176 | 34919 ft | 450 kts | 165° |
| 2026-04-21 13:38 | -10.07112 | 41.33788 | 34918 ft | 449 kts | 165° |
| 2026-04-21 13:38 | -10.13154 | 41.35399 | 34923 ft | 449 kts | 165° |
| 2026-04-21 13:39 | -10.19194 | 41.37010 | 34922 ft | 449 kts | 165° |
| 2026-04-21 13:39 | -10.25230 | 41.38621 | 34919 ft | 448 kts | 165° |
| 2026-04-21 13:40 | -10.31261 | 41.40231 | 34922 ft | 448 kts | 165° |
| 2026-04-21 13:40 | -10.37296 | 41.41843 | 34923 ft | 448 kts | 165° |
| 2026-04-21 13:41 | -10.43333 | 41.43455 | 34918 ft | 449 kts | 165° |
| 2026-04-21 13:41 | -10.49371 | 41.45069 | 34917 ft | 449 kts | 165° |
| 2026-04-21 13:42 | -10.55409 | 41.46683 | 34921 ft | 449 kts | 165° |
| 2026-04-21 13:42 | -10.61446 | 41.48298 | 34922 ft | 449 kts | 165° |
| 2026-04-21 13:43 | -10.67489 | 41.49915 | 34921 ft | 449 kts | 165° |
| 2026-04-21 13:43 | -10.73522 | 41.51530 | 34917 ft | 448 kts | 165° |
| 2026-04-21 13:44 | -10.79554 | 41.53146 | 34919 ft | 448 kts | 165° |
| 2026-04-21 13:44 | -10.85580 | 41.54760 | 34920 ft | 448 kts | 165° |
| 2026-04-21 13:45 | -10.91600 | 41.56374 | 34919 ft | 447 kts | 165° |
| 2026-04-21 13:45 | -10.97613 | 41.57986 | 34920 ft | 446 kts | 165° |
| 2026-04-21 13:46 | -11.03617 | 41.59597 | 34919 ft | 446 kts | 165° |
| 2026-04-21 13:46 | -11.09607 | 41.61204 | 34920 ft | 445 kts | 165° |
| 2026-04-21 13:47 | -11.15594 | 41.62812 | 34917 ft | 444 kts | 165° |
| 2026-04-21 13:47 | -11.21565 | 41.64416 | 34920 ft | 444 kts | 165° |
| 2026-04-21 13:48 | -11.27534 | 41.66020 | 34925 ft | 443 kts | 165° |
| 2026-04-21 13:48 | -11.33488 | 41.67620 | 34922 ft | 442 kts | 165° |
| 2026-04-21 13:49 | -11.39438 | 41.69221 | 34924 ft | 442 kts | 165° |
| 2026-04-21 13:49 | -11.45385 | 41.70821 | 34921 ft | 441 kts | 165° |
| 2026-04-21 13:50 | -11.51329 | 41.72421 | 34696 ft | 444 kts | 165° |
| 2026-04-21 13:50 | -11.54309 | 41.73224 | 34479 ft | 441 kts | 165° |
| 2026-04-21 13:50 | -11.57258 | 41.74018 | 34246 ft | 437 kts | 165° |
| 2026-04-21 13:51 | -11.60199 | 41.74810 | 34025 ft | 438 kts | 165° |
| 2026-04-21 13:51 | -11.63149 | 41.75605 | 33793 ft | 438 kts | 165° |
| 2026-04-21 13:51 | -11.66099 | 41.76401 | 33546 ft | 439 kts | 165° |
| 2026-04-21 13:51 | -11.69055 | 41.77198 | 33291 ft | 440 kts | 165° |
| 2026-04-21 13:52 | -11.72004 | 41.77993 | 32678 ft | 437 kts | 165° |
| 2026-04-21 13:52 | -11.74903 | 41.78774 | 32288 ft | 427 kts | 164° |
| 2026-04-21 13:52 | -11.77629 | 41.79880 | 31797 ft | 420 kts | 148° |
| 2026-04-21 13:52 | -11.79886 | 41.81721 | 31378 ft | 413 kts | 134° |
| 2026-04-21 13:53 | -11.81595 | 41.84052 | 30929 ft | 410 kts | 121° |
| 2026-04-21 13:53 | -11.82691 | 41.86725 | 30476 ft | 409 kts | 108° |
| 2026-04-21 13:53 | -11.83195 | 41.89570 | 30020 ft | 407 kts | 95° |
| 2026-04-21 13:53 | -11.83002 | 41.92452 | 29536 ft | 409 kts | 83° |
| 2026-04-21 13:54 | -11.82423 | 41.95316 | 29079 ft | 417 kts | 80° |
| 2026-04-21 13:54 | -11.81739 | 41.98236 | 28598 ft | 428 kts | 79° |
| 2026-04-21 13:54 | -11.81064 | 42.01178 | 28089 ft | 422 kts | 81° |
| 2026-04-21 13:54 | -11.80485 | 42.04082 | 27626 ft | 414 kts | 82° |
| 2026-04-21 13:55 | -11.79967 | 42.06948 | 27145 ft | 407 kts | 82° |
| 2026-04-21 13:55 | -11.79464 | 42.09764 | 26696 ft | 400 kts | 82° |
| 2026-04-21 13:55 | -11.78958 | 42.12535 | 26251 ft | 394 kts | 82° |
| 2026-04-21 13:55 | -11.78448 | 42.15255 | 25813 ft | 388 kts | 82° |
| 2026-04-21 13:56 | -11.77933 | 42.17948 | 25378 ft | 383 kts | 81° |
| 2026-04-21 13:56 | -11.77421 | 42.20597 | 24950 ft | 378 kts | 81° |
| 2026-04-21 13:56 | -11.76913 | 42.23212 | 24501 ft | 374 kts | 81° |
| 2026-04-21 13:56 | -11.76409 | 42.25799 | 24082 ft | 370 kts | 81° |
| 2026-04-21 13:57 | -11.75911 | 42.28356 | 23656 ft | 366 kts | 81° |
| 2026-04-21 13:57 | -11.75419 | 42.30886 | 23184 ft | 362 kts | 81° |
| 2026-04-21 13:57 | -11.74931 | 42.33389 | 22738 ft | 358 kts | 81° |
| 2026-04-21 13:57 | -11.74449 | 42.35867 | 22312 ft | 354 kts | 81° |
| 2026-04-21 13:58 | -11.73970 | 42.38324 | 21902 ft | 354 kts | 81° |
| 2026-04-21 13:58 | -11.73482 | 42.40830 | 21499 ft | 367 kts | 80° |
| 2026-04-21 13:58 | -11.73040 | 42.43411 | 21043 ft | 369 kts | 88° |
| 2026-04-21 13:58 | -11.73264 | 42.45987 | 20617 ft | 362 kts | 104° |
| 2026-04-21 13:59 | -11.74157 | 42.48353 | 20178 ft | 357 kts | 117° |
| 2026-04-21 13:59 | -11.75424 | 42.50512 | 19756 ft | 352 kts | 121° |
| 2026-04-21 13:59 | -11.76751 | 42.52591 | 19353 ft | 347 kts | 122° |
| 2026-04-21 13:59 | -11.78039 | 42.54653 | 18938 ft | 343 kts | 120° |
| 2026-04-21 14:00 | -11.79251 | 42.56732 | 18536 ft | 339 kts | 119° |
| 2026-04-21 14:00 | -11.80432 | 42.58811 | 18114 ft | 338 kts | 118° |
| 2026-04-21 14:00 | -11.81607 | 42.60884 | 17676 ft | 337 kts | 118° |
| 2026-04-21 14:00 | -11.82793 | 42.62961 | 17271 ft | 342 kts | 119° |
| 2026-04-21 14:01 | -11.84017 | 42.65092 | 16862 ft | 352 kts | 119° |
| 2026-04-21 14:01 | -11.85257 | 42.67237 | 16422 ft | 349 kts | 119° |
| 2026-04-21 14:01 | -11.86483 | 42.69350 | 16005 ft | 343 kts | 119° |
| 2026-04-21 14:01 | -11.87691 | 42.71428 | 15600 ft | 338 kts | 119° |
| 2026-04-21 14:02 | -11.88481 | 42.72787 | 15335 ft | 335 kts | 119° |
| 2026-04-21 14:02 | -11.90056 | 42.75498 | 14816 ft | 329 kts | 119° |
| 2026-04-21 14:02 | -11.91220 | 42.77499 | 14410 ft | 328 kts | 119° |
| 2026-04-21 14:03 | -11.93552 | 42.81514 | 13587 ft | 331 kts | 120° |
| 2026-04-21 14:03 | -11.94737 | 42.83554 | 13166 ft | 337 kts | 120° |
| 2026-04-21 14:03 | -11.95935 | 42.85616 | 12759 ft | 337 kts | 120° |
| 2026-04-21 14:03 | -11.97124 | 42.87662 | 12345 ft | 332 kts | 120° |
| 2026-04-21 14:04 | -11.98293 | 42.89675 | 11945 ft | 327 kts | 120° |
| 2026-04-21 14:04 | -11.99448 | 42.91664 | 11519 ft | 323 kts | 120° |
| 2026-04-21 14:04 | -12.00583 | 42.93620 | 11141 ft | 318 kts | 120° |
| 2026-04-21 14:04 | -12.01702 | 42.95549 | 10764 ft | 313 kts | 120° |
| 2026-04-21 14:05 | -12.02433 | 42.96809 | 10567 ft | 309 kts | 121° |
| 2026-04-21 14:05 | -12.03504 | 42.98656 | 10441 ft | 296 kts | 121° |
| 2026-04-21 14:05 | -12.04535 | 43.00434 | 10298 ft | 285 kts | 121° |
| 2026-04-21 14:05 | -12.05527 | 43.02143 | 10184 ft | 275 kts | 121° |
| 2026-04-21 14:06 | -12.06492 | 43.03809 | 10072 ft | 269 kts | 121° |
| 2026-04-21 14:06 | -12.07401 | 43.05414 | 9977 ft | 254 kts | 114° |
| 2026-04-21 14:06 | -12.07726 | 43.07121 | 9844 ft | 240 kts | 88° |
| 2026-04-21 14:06 | -12.07390 | 43.08741 | 9727 ft | 229 kts | 69° |
| 2026-04-21 14:07 | -12.06564 | 43.10131 | 9316 ft | 230 kts | 53° |
| 2026-04-21 14:07 | -12.05529 | 43.11347 | 9051 ft | 224 kts | 51° |
| 2026-04-21 14:07 | -12.04518 | 43.12503 | 8817 ft | 214 kts | 52° |
| 2026-04-21 14:07 | -12.03559 | 43.13617 | 8581 ft | 204 kts | 52° |
| 2026-04-21 14:08 | -12.02639 | 43.14694 | 8361 ft | 199 kts | 53° |
| 2026-04-21 14:08 | -12.01736 | 43.15753 | 8162 ft | 196 kts | 53° |
| 2026-04-21 14:08 | -12.00834 | 43.16783 | 7949 ft | 195 kts | 46° |
| 2026-04-21 14:08 | -11.99609 | 43.17395 | 7739 ft | 200 kts | 18° |
| 2026-04-21 14:09 | -11.98240 | 43.17706 | 7554 ft | 204 kts | 17° |
| 2026-04-21 14:09 | -11.96860 | 43.18021 | 7343 ft | 202 kts | 17° |
| 2026-04-21 14:09 | -11.95491 | 43.18340 | 7019 ft | 201 kts | 18° |
| 2026-04-21 14:09 | -11.94131 | 43.18661 | 6674 ft | 201 kts | 18° |
| 2026-04-21 14:10 | -11.92769 | 43.18987 | 6336 ft | 201 kts | 18° |
| 2026-04-21 14:10 | -11.91422 | 43.19309 | 6043 ft | 198 kts | 18° |
| 2026-04-21 14:10 | -11.90073 | 43.19634 | 5646 ft | 200 kts | 18° |
| 2026-04-21 14:10 | -11.88733 | 43.19957 | 5426 ft | 194 kts | 19° |
| 2026-04-21 14:11 | -11.87437 | 43.20271 | 5295 ft | 190 kts | 18° |
| 2026-04-21 14:11 | -11.86126 | 43.20590 | 5244 ft | 197 kts | 18° |
| 2026-04-21 14:11 | -11.84778 | 43.20918 | 5129 ft | 200 kts | 18° |
| 2026-04-21 14:11 | -11.83431 | 43.21244 | 5033 ft | 198 kts | 18° |
| 2026-04-21 14:12 | -11.82092 | 43.21570 | 4927 ft | 199 kts | 17° |
| 2026-04-21 14:12 | -11.80730 | 43.21901 | 4724 ft | 203 kts | 18° |
| 2026-04-21 14:12 | -11.79358 | 43.22277 | 4506 ft | 199 kts | 21° |
| 2026-04-21 14:12 | -11.78052 | 43.22673 | 4299 ft | 196 kts | 20° |
| 2026-04-21 14:13 | -11.76767 | 43.22991 | 4119 ft | 181 kts | 15° |
| 2026-04-21 14:13 | -11.75547 | 43.23227 | 3909 ft | 176 kts | 14° |
| 2026-04-21 14:13 | -11.74360 | 43.23440 | 3714 ft | 171 kts | 15° |
| 2026-04-21 14:13 | -11.73182 | 43.23650 | 3565 ft | 171 kts | 13° |
| 2026-04-21 14:14 | -11.72010 | 43.23859 | 3384 ft | 172 kts | 14° |
| 2026-04-21 14:14 | -11.70860 | 43.24063 | 3189 ft | 164 kts | 13° |
| 2026-04-21 14:14 | -11.69759 | 43.24259 | 3055 ft | 158 kts | 13° |
| 2026-04-21 14:14 | -11.68637 | 43.24460 | 2878 ft | 168 kts | 13° |
| 2026-04-21 14:15 | -11.67484 | 43.24666 | 2636 ft | 166 kts | 13° |
| 2026-04-21 14:15 | -11.66360 | 43.24865 | 2419 ft | 162 kts | 13° |
| 2026-04-21 14:15 | -11.65255 | 43.25063 | 2184 ft | 162 kts | 13° |
| 2026-04-21 14:15 | -11.64128 | 43.25263 | 1987 ft | 168 kts | 13° |
| 2026-04-21 14:16 | -11.62985 | 43.25467 | 1766 ft | 166 kts | 12° |
| 2026-04-21 14:16 | -11.61841 | 43.25672 | 1545 ft | 169 kts | 11° |
| 2026-04-21 14:16 | -11.60684 | 43.25879 | 1323 ft | 169 kts | 11° |
| 2026-04-21 14:16 | -11.59510 | 43.26087 | 1088 ft | 174 kts | 9° |
| 2026-04-21 14:17 | -11.58340 | 43.26295 | 853 ft | 168 kts | 9° |
| 2026-04-21 14:17 | -11.57185 | 43.26501 | 644 ft | 173 kts | 7° |
| 2026-04-21 14:17 | -11.55993 | 43.26714 | 400 ft | 172 kts | 9° |
| 2026-04-21 14:17 | -11.54859 | 43.26940 | 166 ft | 164 kts | 11° |
| 2026-04-21 14:18 | -11.53763 | 43.27148 | 76 ft | 159 kts | 11° |
| 2026-04-21 14:18 | -11.52875 | 43.27297 | 87 ft | 83 kts | 8° |
| 2026-04-21 14:18 | -11.52447 | 43.27365 | 85 ft | 33 kts | 15° |
| 2026-04-21 14:18 | -11.52358 | 43.27338 | 85 ft | 12 kts | 255° |
| 2026-04-21 14:19 | -11.52406 | 43.27327 | 84 ft | 7 kts | 175° |
| 2026-04-21 14:19 | -11.52499 | 43.27332 | 89 ft | 19 kts | 184° |
| 2026-04-21 14:19 | -11.52635 | 43.27320 | 85 ft | 19 kts | 185° |
| 2026-04-21 14:19 | -11.52768 | 43.27308 | 84 ft | 19 kts | 185° |
| 2026-04-21 14:20 | -11.52895 | 43.27288 | 85 ft | 18 kts | 191° |
| 2026-04-21 14:20 | -11.53016 | 43.27263 | 88 ft | 18 kts | 191° |
| 2026-04-21 14:20 | -11.53134 | 43.27239 | 86 ft | 17 kts | 191° |
| 2026-04-21 14:20 | -11.53247 | 43.27216 | 85 ft | 16 kts | 191° |
| 2026-04-21 14:21 | -11.53356 | 43.27194 | 86 ft | 16 kts | 191° |
| 2026-04-21 14:21 | -11.53461 | 43.27172 | 82 ft | 15 kts | 191° |
| 2026-04-21 14:21 | -11.53561 | 43.27154 | 83 ft | 14 kts | 189° |
| 2026-04-21 14:21 | -11.53656 | 43.27154 | 78 ft | 14 kts | 142° |
| 2026-04-21 14:22 | -11.53674 | 43.27246 | 79 ft | 13 kts | 97° |
| 2026-04-21 14:22 | -11.53692 | 43.27335 | 81 ft | 13 kts | 120° |
| 2026-04-21 14:22 | -11.53712 | 43.27357 | 83 ft | 0 kts | 136° |